Naples Pigeon Derby - loft

Station: Inventory - T Race

Distance: 1 Miles    

Release: 22-Jun-2022 09:42

Weather Release:    Arrival:

Wind at Release:     Wind at Arrival:

Temp at Release: °    Temp at Arrival: °

Lofts: 187

Birds: 986

Clocked: 986

Good Luck to Everyone!
Drops Pos Breeder Pigeon Name Color Sex Ent Arrival Speed To Win Elg PdAvgSprint
1 Ramon Loft - 2864-AU22-AA BBWF H 1 11:22:17.00 17.550 00:00:00 Yes
2 Yorley Perez Loft - FL 1472-AU22-FOYS BB H 1 11:22:18.50 17.546 00:00:01 Yes
3 Wally Loft - FL 0017-AU22-WALL BCHD H 1 11:22:19.50 17.543 00:00:02 Yes
4 Erick & Ore - FL 2804-AU22-AA BBWF C 1 11:22:20.10 17.541 00:00:03 Yes
5 Ivan El Terrible Loft - FL 0010-AU22-IVAN BC C 1 11:22:20.40 17.540 00:00:03 Yes
6 Rgk Loft - FL 0104-AU22-ORL BCWF H 1 11:22:22.00 17.536 00:00:05 Yes
7 Sandoca Loft - FL 8687-AU22-AA BCH H 1 11:22:22.90 17.533 00:00:06 Yes
8 Los Tizaa Loft - FL 4687-AU22-AA BCH C 1 11:22:23.60 17.531 00:00:07 Yes
9 Velasco Sophia Loft - FL 16502-AU22-ARPU COWF H 1 11:22:24.30 17.529 00:00:07 Yes
10 Yorley Perez Loft - FL 1474-AU22-FOYS PENC H 2 11:22:26.60 17.522 00:00:10 Yes
11 Miranda & Del Rio Loft - FL 0005-AU22-MIRA BCH C 1 11:22:29.80 17.513 00:00:13 Yes
12 Valeron & Son Loft - FL 3834-AU22-AA SIL C 1 11:22:31.30 17.509 00:00:14 Yes
13 Camajuani-Loft - FL 50303-AU22-ARPU El claro BB C 1 11:22:35.40 17.497 00:00:18 Yes
14 Abigail Lofts - FL 3481-AU22-HRPC BB C 1 11:22:37.70 17.490 00:00:21 Yes
15 ++arturo & Fredy Society - 0028-AU22-ARTU GRIZ C 1 11:22:39.80 17.484 00:00:23 Yes
16 Limonar Family Loft - FL 0011-AU22-LIMO Blue bird BB H 1 11:22:47.50 17.462 00:00:30 Yes
17 Ruben Loft - FL 8751-AU22-AA BCH C 1 11:22:50.20 17.454 00:00:33 Yes
18 Tamayos Loft - FL 0025-AU22-YADY BBWF C 1 11:22:52.20 17.448 00:00:35 Yes
19 El Yiro Loft - FL 4676-AU22-HRPC RED H 1 11:22:54.60 17.441 00:00:38 Yes
20 Tellito Loft - FL 50971-AU22-ARPU BB H 1 11:22:57.10 17.434 00:00:40 Yes
21 Vc Champ Loft - FL 45561-AU22-ARPU BB H 1 11:22:59.10 17.428 00:00:42 Yes
22 Cubas Lofts - FL 5775-AU22-AA BB C 1 11:23:02.60 17.418 00:00:46 Yes
23 Rudy loft - FL 65801-AU22-ARPU RUDY 01 BB H 1 11:23:03.00 17.417 00:00:46 Yes
24 Chachi Loft - FL 8670-AU22-AA BBWF H 1 11:23:03.60 17.415 00:00:47 Yes
25 Caballon Loft - FL 50261-AU22-ARPU BCH C 1 11:23:04.00 17.414 00:00:47 Yes
26 The Speeds Racers Lady - FL 8803-AU22-AA BB C 1 11:23:05.20 17.411 00:00:48 Yes
27 Best Friends Loft - FL 25291-AU22-ARPU BB H 1 11:23:09.00 17.400 00:00:52 Yes
28 Miracle Warriors - FL 1806-AU22-WARR BB C 1 11:23:36.20 17.322 00:01:19 Yes
29 Rudy loft - FL 34116-AU22-ARPU RUDY 16 BBWF C 2 11:23:48.60 17.287 00:01:32 Yes
30 Saldana Lofts - 4669-AU22-GRAI BCH H 1 11:23:49.20 17.285 00:01:32 Yes
31 Ignacio Family Loft - FL 3562-AU22-HRPC BCH H 1 11:23:51.50 17.279 00:01:34 Yes
32 Noly Loft - TX 5530-AU22-FOYS BCH C 1 11:23:52.00 17.277 00:01:35 Yes
33 M M Rayas Loft - MS 19254-AU22-JEDD Chicana BB H 1 11:23:52.60 17.276 00:01:35 Yes
34 Kimberly Loft - FL 1005-AU22-KIMB BB C 1 11:23:56.80 17.264 00:01:40 Yes
35 Luis Rosa Loft - 8399-AU22-ARPU BB C 1 11:23:58.00 17.261 00:01:41 Yes
36 Hidalgo Lofts - FL 1526-AU22-HRPC BCWF C 1 11:23:59.20 17.257 00:01:42 Yes
37 Inri Loft - FL 8990-AU22-ARPO BB C 1 11:24:01.60 17.250 00:01:45 Yes
38 Rg For Sale - FL 56972-AU22-ARPU BCH C 1 11:24:06.30 17.237 00:01:49 Yes
39 El Pata Y Placido - FL 5665-AU22-HRPC SIL H 1 11:24:07.50 17.234 00:01:50 Yes
40 Tellito Loft - FL 50970-AU22-ARPU BB C 2 11:24:09.30 17.229 00:01:52 Yes
41 Cubas Lofts - FL 5787-AU22-AA BCD C 2 11:24:11.90 17.221 00:01:55 Yes
41 LCH LOFT - FL 14012-AU22-ARPU Princess 12 BB C 1 11:24:11.90 17.221 00:01:55 Yes
43 Rottweiler Company Loft - MI 21899-AU22-ARPU BB H 1 11:24:25.30 17.184 00:02:08 Yes
44 Yorley Perez Loft - FL 1473-AU22-FOYS BBWF H 3 11:24:28.00 17.176 00:02:11 Yes
45 Team Usa Sigler Loft - FL 65112-AU22-ARPU BB C 1 11:24:38.90 17.146 00:02:22 Yes
46 Oscar Rodriguez Loft - FL 0465-AU22-CBS BCD H 1 11:24:45.30 17.128 00:02:28 Yes
47 Saldana Lofts - 4618-AU22-GRAI BB H 2 11:24:47.30 17.123 00:02:30 Yes
48 Machado Loft - FL 66706-AU22-ARPU BCH H 1 11:24:50.90 17.113 00:02:34 Yes
49 Cubusa Loft - FL 0725-IF22-UTEN BB C 1 11:24:52.20 17.109 00:02:35 Yes
50 La Quinta Loft - FL 94402-AU22-ARPU BCH H 1 11:24:56.30 17.098 00:02:39 Yes
51 Torres Loft - FL 15191-AU22-ARPU SIL H 1 11:24:57.20 17.095 00:02:40 Yes
52 Lara Famili Loft - 46393-AU22-ARPU BB H 1 11:25:04.10 17.076 00:02:47 Yes
53 El Kilo Loft - FL 6112-AU22-AA BB C 1 11:25:05.20 17.073 00:02:48 Yes
54 VFL - IL 56201-AU22-ARPU BCH C 1 11:25:06.00 17.071 00:02:49 Yes
55 Sandoca Loft - FL 8692-AU22-AA Aaron BB H 2 11:25:07.90 17.066 00:02:51 Yes
56 Sagua Loft - FL 46021-AU22-ARPU Secretaria BBWF H 1 11:25:13.20 17.051 00:02:56 Yes
57 Puyo Loft - 0844-IF22-FOYS GRIZ C 1 11:25:34.00 16.994 00:03:17 Yes
58 Tellito Loft - FL 50975-AU22-ARPU BCWF H 3 11:25:43.50 16.968 00:03:26 Yes
59 Cardenas Loft - FL 1301-AU22-HRPC BB H 1 11:25:44.20 16.966 00:03:27 Yes
60 Leo-mey loft - WA 59310-AU22-ARPU BCH H 1 11:25:46.30 16.960 00:03:29 Yes
61 For Sale Carlito El Animal - FL 0020-AU22-ELAN BB H 1 11:25:47.30 16.958 00:03:30 Yes
62 Trooper Family Loft - FL 13902-AU22-JEDD Treasure BBWF H 1 11:25:48.20 16.955 00:03:31 Yes
63 Wally Loft - FL 0008-AU22-WALL BCH C 2 11:25:48.90 16.953 00:03:32 Yes
63 Yla Loft - FL 19305-AU22-ARPU BB H 1 11:25:49.00 16.953 00:03:32 Yes
65 Aron Loft - FL 2219-AU22-LIAN BBWF C 1 11:25:50.80 16.948 00:03:34 Yes
66 El Messi loft - FL 20644-AU22-ARPU BCH C 1 11:25:52.00 16.945 00:03:35 Yes
67 B.Ch Club - FL 26866-AU22-ARPU BBWF H 1 11:25:53.80 16.940 00:03:37 Yes
68 Yordy Loft - FL 20405-AU22-ARPU BB C 1 11:25:55.50 16.935 00:03:39 Yes
69 For Sale Bore Tech - FL 8321-AU22-AA BCH H 1 11:25:58.60 16.927 00:03:41 Yes
70 Lara Famili Loft - 46400-AU22-ARPU BCH H 2 11:26:00.70 16.921 00:03:44 Yes
71 Horizon Lofts - FL 21419-AU22-ARPU Navajo BCH C 1 11:26:01.30 16.920 00:03:44 Yes
72 Yorley Perez Loft - FL 1477-IF22-FOYS BB H 4 11:26:03.40 16.914 00:03:46 Yes
73 Pico Loft - FL 0918-AU22-HRPC BCWF H 1 11:26:04.20 16.912 00:03:47 Yes
74 Limonar Family Loft - FL 0012-AU22-LIMO Elegant blue BB C 2 11:26:08.20 16.901 00:03:51 Yes
75 Rmannys Wings - FL 63375-AU22-ARPU BCH C 1 11:26:10.20 16.895 00:03:53 Yes
76 Cubusa Loft - FL 38393-AU22-ARPU BB C 2 11:26:23.10 16.861 00:04:06 Yes
77 Puyo Loft - 0846-IF22-FOYS BB H 2 11:26:33.80 16.832 00:04:17 Yes
78 Machado Loft - FL 66702-AU22-ARPU RED H 2 11:26:40.90 16.813 00:04:24 Yes
79 Caballon Loft - FL 50263-AU22-ARPU BBWF H 2 11:26:41.70 16.811 00:04:25 Yes
80 Yorley Perez Loft - FL 1481-IF22-FOYS GRIZ C 5 11:26:43.70 16.805 00:04:27 Yes
81 Mya Loft - FL 34750-AU22-AA BBWF C 1 11:26:44.40 16.804 00:04:27 Yes
82 Puyo Loft - 0847-AU22-FOYS BCH C 3 11:26:48.00 16.794 00:04:31 Yes
83 99 Problems - FL 0031-AU22-ARRO BCH H 1 11:26:54.40 16.777 00:04:37 Yes
84 Bpm/3ts Lofts - FL 11803-AU22-JEDD BB C 1 11:26:57.00 16.770 00:04:40 Yes
85 Medina Loft Fl - FL 2227-AU22-MEDI BB H 1 11:26:59.70 16.763 00:04:42 Yes
86 Los Cubanitos Loft - FL 0412-AU22-JEDD Zoon Zoon BB H 1 11:27:08.10 16.740 00:04:51 Yes
87 Flamingo Olr - FL 7935-AU22-GHC RED H 1 11:27:09.40 16.737 00:04:52 Yes
88 Karel Loft - FL 2426-AU22-AA BCH H 1 11:27:15.50 16.721 00:04:58 Yes
89 Aparicio Loft - FL 1003-AU22-ARPU RED H 1 11:27:15.80 16.720 00:04:59 Yes
90 Leon Loft - 31038-AU22-JEDD BB C 1 11:27:18.10 16.714 00:05:01 Yes
91 Ung-Pocholo Loft - FL 35116-AU22-ARPU BCH H 1 11:27:51.80 16.625 00:05:35 Yes
92 Los Tizaa Loft - FL 25821-AU22-JEDD BCWF C 2 11:27:56.50 16.613 00:05:39 Yes
93 Yero Family Loft - FL 0635-AU22-YFL RED H 1 11:27:57.80 16.610 00:05:41 Yes
94 OscarSandor - FL 0037-AU22-OSCA BCH H 1 11:27:58.60 16.607 00:05:42 Yes
95 Caballon Loft - FL 50202-AU22-ARPU BLAC C 3 11:27:59.50 16.605 00:05:42 Yes
96 Triple A Loft - FL 3953-AU22-AA BCWF H 1 11:28:00.20 16.603 00:05:43 Yes
97 El Pata Y Placido - FL 5618-AU22-HRPC BCH C 2 11:28:05.90 16.588 00:05:49 Yes
98 Bore Tech Loft - FL 8312-AU22-AA BCH C 1 11:28:08.00 16.583 00:05:51 Yes
99 Bore Tech Loft - FL 36139-AU22-ARPU BCWF C 2 11:28:08.40 16.582 00:05:51 Yes
100 Javier Gonzalez Loft - FL 38805-AU22-ARPU BCH H 1 11:28:11.70 16.573 00:05:55 Yes

There are 986 bird records

Note: These Race Results are unofficial and subject to change until verified by the Race Committee and declared final.

 

windy